sensor_id;sensor_type;location;lat;lon;timestamp;temperature;humidity
68128;SHT30;54931;52.098;21.006;2023-08-01T00:00:19;18.69;68.03
68128;SHT30;54931;52.098;21.006;2023-08-01T00:03:07;18.70;68.11
68128;SHT30;54931;52.098;21.006;2023-08-01T00:05:34;18.69;68.10
68128;SHT30;54931;52.098;21.006;2023-08-01T00:08:02;18.68;68.08
68128;SHT30;54931;52.098;21.006;2023-08-01T00:10:30;18.67;68.18
68128;SHT30;54931;52.098;21.006;2023-08-01T00:12:57;18.66;68.13
68128;SHT30;54931;52.098;21.006;2023-08-01T00:15:25;18.65;68.13
68128;SHT30;54931;52.098;21.006;2023-08-01T00:17:52;18.65;68.22
68128;SHT30;54931;52.098;21.006;2023-08-01T00:20:20;18.64;68.20
68128;SHT30;54931;52.098;21.006;2023-08-01T00:22:47;18.64;68.20
68128;SHT30;54931;52.098;21.006;2023-08-01T00:25:15;18.63;68.24
68128;SHT30;54931;52.098;21.006;2023-08-01T00:27:42;18.63;68.22
68128;SHT30;54931;52.098;21.006;2023-08-01T00:30:10;18.63;68.30
68128;SHT30;54931;52.098;21.006;2023-08-01T00:32:38;18.63;68.30
68128;SHT30;54931;52.098;21.006;2023-08-01T00:35:06;18.63;68.31
68128;SHT30;54931;52.098;21.006;2023-08-01T00:37:34;18.63;68.43
68128;SHT30;54931;52.098;21.006;2023-08-01T00:40:02;18.62;68.41
68128;SHT30;54931;52.098;21.006;2023-08-01T00:42:30;18.61;68.36
68128;SHT30;54931;52.098;21.006;2023-08-01T00:44:58;18.62;68.36
68128;SHT30;54931;52.098;21.006;2023-08-01T00:47:27;18.62;68.48
68128;SHT30;54931;52.098;21.006;2023-08-01T00:49:55;18.60;68.56
68128;SHT30;54931;52.098;21.006;2023-08-01T00:52:22;18.59;68.50
68128;SHT30;54931;52.098;21.006;2023-08-01T00:54:50;18.59;68.50
68128;SHT30;54931;52.098;21.006;2023-08-01T00:57:18;18.58;68.56
68128;SHT30;54931;52.098;21.006;2023-08-01T00:59:45;18.56;68.69
68128;SHT30;54931;52.098;21.006;2023-08-01T01:02:13;18.54;68.75
68128;SHT30;54931;52.098;21.006;2023-08-01T01:04:40;18.52;68.80
68128;SHT30;54931;52.098;21.006;2023-08-01T01:07:08;18.49;68.85
68128;SHT30;54931;52.098;21.006;2023-08-01T01:09:36;18.48;68.95
68128;SHT30;54931;52.098;21.006;2023-08-01T01:12:03;18.45;69.00
68128;SHT30;54931;52.098;21.006;2023-08-01T01:14:31;18.42;69.04
68128;SHT30;54931;52.098;21.006;2023-08-01T01:16:58;18.41;69.10
68128;SHT30;54931;52.098;21.006;2023-08-01T01:19:27;18.39;69.16
68128;SHT30;54931;52.098;21.006;2023-08-01T01:21:54;18.38;69.23
68128;SHT30;54931;52.098;21.006;2023-08-01T01:24:24;18.36;69.28
68128;SHT30;54931;52.098;21.006;2023-08-01T01:26:55;18.35;69.29
68128;SHT30;54931;52.098;21.006;2023-08-01T01:29:28;18.34;69.34
68128;SHT30;54931;52.098;21.006;2023-08-01T01:31:57;18.33;69.49
68128;SHT30;54931;52.098;21.006;2023-08-01T01:34:27;18.33;69.45
68128;SHT30;54931;52.098;21.006;2023-08-01T01:36:55;18.33;69.42
68128;SHT30;54931;52.098;21.006;2023-08-01T01:39:23;18.32;69.50
68128;SHT30;54931;52.098;21.006;2023-08-01T01:41:50;18.30;69.52
68128;SHT30;54931;52.098;21.006;2023-08-01T01:44:18;18.29;69.59
68128;SHT30;54931;52.098;21.006;2023-08-01T01:46:45;18.27;69.61
68128;SHT30;54931;52.098;21.006;2023-08-01T01:49:13;18.26;69.72
68128;SHT30;54931;52.098;21.006;2023-08-01T01:51:41;18.23;69.79
68128;SHT30;54931;52.098;21.006;2023-08-01T01:54:08;18.19;69.83
68128;SHT30;54931;52.098;21.006;2023-08-01T01:56:36;18.15;69.92
68128;SHT30;54931;52.098;21.006;2023-08-01T01:59:03;18.12;70.01
68128;SHT30;54931;52.098;21.006;2023-08-01T02:01:31;18.10;70.10
68128;SHT30;54931;52.098;21.006;2023-08-01T02:03:59;18.06;70.16
68128;SHT30;54931;52.098;21.006;2023-08-01T02:06:26;18.05;70.27
68128;SHT30;54931;52.098;21.006;2023-08-01T02:08:53;18.05;70.36
68128;SHT30;54931;52.098;21.006;2023-08-01T02:11:21;18.03;70.42
68128;SHT30;54931;52.098;21.006;2023-08-01T02:13:49;18.02;70.54
68128;SHT30;54931;52.098;21.006;2023-08-01T02:16:16;18.01;70.60
68128;SHT30;54931;52.098;21.006;2023-08-01T02:18:44;18.01;70.63
68128;SHT30;54931;52.098;21.006;2023-08-01T02:21:11;18.00;70.66
68128;SHT30;54931;52.098;21.006;2023-08-01T02:23:39;18.00;70.62
68128;SHT30;54931;52.098;21.006;2023-08-01T02:26:06;18.00;70.61
68128;SHT30;54931;52.098;21.006;2023-08-01T02:28:35;18.00;70.58
68128;SHT30;54931;52.098;21.006;2023-08-01T02:31:02;17.98;70.67
68128;SHT30;54931;52.098;21.006;2023-08-01T02:33:30;17.96;70.60
68128;SHT30;54931;52.098;21.006;2023-08-01T02:35:57;17.94;70.55
68128;SHT30;54931;52.098;21.006;2023-08-01T02:38:25;17.94;70.59
68128;SHT30;54931;52.098;21.006;2023-08-01T02:40:52;17.93;70.60
68128;SHT30;54931;52.098;21.006;2023-08-01T02:43:20;17.93;70.56
68128;SHT30;54931;52.098;21.006;2023-08-01T02:45:48;17.93;70.51
68128;SHT30;54931;52.098;21.006;2023-08-01T02:48:15;17.95;70.52
68128;SHT30;54931;52.098;21.006;2023-08-01T02:50:43;17.95;70.49
68128;SHT30;54931;52.098;21.006;2023-08-01T02:53:11;17.96;70.47
68128;SHT30;54931;52.098;21.006;2023-08-01T02:55:38;17.99;70.38
68128;SHT30;54931;52.098;21.006;2023-08-01T02:58:06;18.00;70.37
68128;SHT30;54931;52.098;21.006;2023-08-01T03:00:37;18.02;70.22
68128;SHT30;54931;52.098;21.006;2023-08-01T03:03:06;18.04;70.10
68128;SHT30;54931;52.098;21.006;2023-08-01T03:05:36;18.07;70.00
68128;SHT30;54931;52.098;21.006;2023-08-01T03:08:04;18.08;69.88
68128;SHT30;54931;52.098;21.006;2023-08-01T03:10:32;18.11;69.80
68128;SHT30;54931;52.098;21.006;2023-08-01T03:12:59;18.12;69.78
68128;SHT30;54931;52.098;21.006;2023-08-01T03:15:27;18.13;69.73
68128;SHT30;54931;52.098;21.006;2023-08-01T03:17:55;18.14;69.61
68128;SHT30;54931;52.098;21.006;2023-08-01T03:20:22;18.16;69.57
68128;SHT30;54931;52.098;21.006;2023-08-01T03:22:50;18.16;69.51
68128;SHT30;54931;52.098;21.006;2023-08-01T03:25:18;18.19;69.40
68128;SHT30;54931;52.098;21.006;2023-08-01T03:27:45;18.20;69.43
68128;SHT30;54931;52.098;21.006;2023-08-01T03:30:13;18.22;69.36
68128;SHT30;54931;52.098;21.006;2023-08-01T03:32:41;18.23;69.34
68128;SHT30;54931;52.098;21.006;2023-08-01T03:35:09;18.26;69.31
68128;SHT30;54931;52.098;21.006;2023-08-01T03:37:37;18.29;69.24
68128;SHT30;54931;52.098;21.006;2023-08-01T03:40:06;18.31;69.11
68128;SHT30;54931;52.098;21.006;2023-08-01T03:42:37;18.34;68.97
68128;SHT30;54931;52.098;21.006;2023-08-01T03:45:05;18.38;68.81
68128;SHT30;54931;52.098;21.006;2023-08-01T03:47:34;18.42;68.69
68128;SHT30;54931;52.098;21.006;2023-08-01T03:50:03;18.47;68.48
68128;SHT30;54931;52.098;21.006;2023-08-01T03:52:31;18.52;68.20
68128;SHT30;54931;52.098;21.006;2023-08-01T03:55:01;18.59;68.04
68128;SHT30;54931;52.098;21.006;2023-08-01T03:57:29;18.64;67.83
68128;SHT30;54931;52.098;21.006;2023-08-01T03:59:57;18.71;67.65
68128;SHT30;54931;52.098;21.006;2023-08-01T04:02:25;18.77;67.51
68128;SHT30;54931;52.098;21.006;2023-08-01T04:04:53;18.83;67.48
68128;SHT30;54931;52.098;21.006;2023-08-01T04:07:20;18.88;67.26
68128;SHT30;54931;52.098;21.006;2023-08-01T04:09:47;18.92;67.20
68128;SHT30;54931;52.098;21.006;2023-08-01T04:12:15;18.95;67.16
68128;SHT30;54931;52.098;21.006;2023-08-01T04:14:42;18.98;66.89
68128;SHT30;54931;52.098;21.006;2023-08-01T04:17:11;18.99;66.69
68128;SHT30;54931;52.098;21.006;2023-08-01T04:19:38;19.00;66.61
68128;SHT30;54931;52.098;21.006;2023-08-01T04:22:06;18.99;66.58
68128;SHT30;54931;52.098;21.006;2023-08-01T04:24:34;19.02;66.57
68128;SHT30;54931;52.098;21.006;2023-08-01T04:27:01;19.04;66.62
68128;SHT30;54931;52.098;21.006;2023-08-01T04:29:29;19.08;66.41
68128;SHT30;54931;52.098;21.006;2023-08-01T04:31:58;19.14;66.43
68128;SHT30;54931;52.098;21.006;2023-08-01T04:34:25;19.22;66.28
68128;SHT30;54931;52.098;21.006;2023-08-01T04:36:53;19.28;65.99
68128;SHT30;54931;52.098;21.006;2023-08-01T04:39:20;19.36;65.89
68128;SHT30;54931;52.098;21.006;2023-08-01T04:41:48;19.41;65.68
68128;SHT30;54931;52.098;21.006;2023-08-01T04:44:16;19.47;65.62
68128;SHT30;54931;52.098;21.006;2023-08-01T04:46:44;19.53;65.32
68128;SHT30;54931;52.098;21.006;2023-08-01T04:49:11;19.61;65.39
68128;SHT30;54931;52.098;21.006;2023-08-01T04:51:38;19.76;65.29
68128;SHT30;54931;52.098;21.006;2023-08-01T04:54:06;20.00;64.87
68128;SHT30;54931;52.098;21.006;2023-08-01T04:56:34;20.12;64.47
68128;SHT30;54931;52.098;21.006;2023-08-01T04:59:01;20.11;64.15
68128;SHT30;54931;52.098;21.006;2023-08-01T05:01:29;20.10;63.88
68128;SHT30;54931;52.098;21.006;2023-08-01T05:03:56;20.08;63.83
68128;SHT30;54931;52.098;21.006;2023-08-01T05:06:25;20.08;63.93
68128;SHT30;54931;52.098;21.006;2023-08-01T05:08:52;20.15;63.89
68128;SHT30;54931;52.098;21.006;2023-08-01T05:11:19;20.39;63.84
68128;SHT30;54931;52.098;21.006;2023-08-01T05:13:48;20.81;62.56
68128;SHT30;54931;52.098;21.006;2023-08-01T05:16:15;21.00;62.05
68128;SHT30;54931;52.098;21.006;2023-08-01T05:18:43;21.23;61.80
68128;SHT30;54931;52.098;21.006;2023-08-01T05:21:10;21.39;61.20
68128;SHT30;54931;52.098;21.006;2023-08-01T05:23:38;21.48;60.77
68128;SHT30;54931;52.098;21.006;2023-08-01T05:26:05;21.48;60.81
68128;SHT30;54931;52.098;21.006;2023-08-01T05:28:32;21.40;60.28
68128;SHT30;54931;52.098;21.006;2023-08-01T05:31:00;21.28;60.51
68128;SHT30;54931;52.098;21.006;2023-08-01T05:33:28;21.20;60.74
68128;SHT30;54931;52.098;21.006;2023-08-01T05:35:55;21.13;60.65
68128;SHT30;54931;52.098;21.006;2023-08-01T05:38:22;21.05;60.82
68128;SHT30;54931;52.098;21.006;2023-08-01T05:40:50;21.02;60.99
68128;SHT30;54931;52.098;21.006;2023-08-01T05:43:18;21.00;60.76
68128;SHT30;54931;52.098;21.006;2023-08-01T05:45:45;21.03;61.06
68128;SHT30;54931;52.098;21.006;2023-08-01T05:48:13;21.11;61.16
68128;SHT30;54931;52.098;21.006;2023-08-01T05:50:41;21.20;60.87
68128;SHT30;54931;52.098;21.006;2023-08-01T05:53:08;21.30;60.83
68128;SHT30;54931;52.098;21.006;2023-08-01T05:55:36;21.44;60.52
68128;SHT30;54931;52.098;21.006;2023-08-01T05:58:03;21.60;60.39
68128;SHT30;54931;52.098;21.006;2023-08-01T06:00:31;21.75;60.22
68128;SHT30;54931;52.098;21.006;2023-08-01T06:02:59;21.89;59.99
68128;SHT30;54931;52.098;21.006;2023-08-01T06:05:29;22.01;59.44
68128;SHT30;54931;52.098;21.006;2023-08-01T06:07:57;22.12;59.41
68128;SHT30;54931;52.098;21.006;2023-08-01T06:10:24;22.23;59.11
68128;SHT30;54931;52.098;21.006;2023-08-01T06:12:52;22.30;58.49
68128;SHT30;54931;52.098;21.006;2023-08-01T06:15:20;22.31;58.11
68128;SHT30;54931;52.098;21.006;2023-08-01T06:17:48;22.30;58.16
68128;SHT30;54931;52.098;21.006;2023-08-01T06:20:16;22.27;58.18
68128;SHT30;54931;52.098;21.006;2023-08-01T06:22:44;22.24;57.88
68128;SHT30;54931;52.098;21.006;2023-08-01T06:25:12;22.24;58.17
68128;SHT30;54931;52.098;21.006;2023-08-01T06:27:41;22.29;58.28
68128;SHT30;54931;52.098;21.006;2023-08-01T06:30:08;22.36;58.41
68128;SHT30;54931;52.098;21.006;2023-08-01T06:32:37;22.40;58.30
68128;SHT30;54931;52.098;21.006;2023-08-01T06:35:04;22.44;58.54
68128;SHT30;54931;52.098;21.006;2023-08-01T06:37:33;22.48;57.62
68128;SHT30;54931;52.098;21.006;2023-08-01T06:40:01;22.53;57.72
68128;SHT30;54931;52.098;21.006;2023-08-01T06:42:30;22.63;57.53
68128;SHT30;54931;52.098;21.006;2023-08-01T06:44:57;22.76;57.48
68128;SHT30;54931;52.098;21.006;2023-08-01T06:47:26;22.99;57.75
68128;SHT30;54931;52.098;21.006;2023-08-01T06:49:53;23.26;57.11
68128;SHT30;54931;52.098;21.006;2023-08-01T06:52:21;23.39;56.14
68128;SHT30;54931;52.098;21.006;2023-08-01T06:54:48;23.47;55.76
68128;SHT30;54931;52.098;21.006;2023-08-01T06:57:16;23.60;55.72
68128;SHT30;54931;52.098;21.006;2023-08-01T06:59:43;23.78;55.22
68128;SHT30;54931;52.098;21.006;2023-08-01T07:02:11;23.97;55.18
68128;SHT30;54931;52.098;21.006;2023-08-01T07:04:38;24.17;55.07
68128;SHT30;54931;52.098;21.006;2023-08-01T07:07:06;24.26;54.31
68128;SHT30;54931;52.098;21.006;2023-08-01T07:09:35;24.32;53.98
68128;SHT30;54931;52.098;21.006;2023-08-01T07:12:04;24.41;54.23
68128;SHT30;54931;52.098;21.006;2023-08-01T07:14:32;24.62;54.86
68128;SHT30;54931;52.098;21.006;2023-08-01T07:16:59;24.89;54.15
68128;SHT30;54931;52.098;21.006;2023-08-01T07:19:27;25.06;52.93
68128;SHT30;54931;52.098;21.006;2023-08-01T07:21:55;25.14;52.63
68128;SHT30;54931;52.098;21.006;2023-08-01T07:24:23;25.30;52.70
68128;SHT30;54931;52.098;21.006;2023-08-01T07:26:50;25.44;52.11
68128;SHT30;54931;52.098;21.006;2023-08-01T07:29:18;25.48;51.90
68128;SHT30;54931;52.098;21.006;2023-08-01T07:31:45;25.54;52.51
68128;SHT30;54931;52.098;21.006;2023-08-01T07:34:13;25.56;51.48
68128;SHT30;54931;52.098;21.006;2023-08-01T07:36:41;25.47;51.71
68128;SHT30;54931;52.098;21.006;2023-08-01T07:39:09;25.39;52.05
68128;SHT30;54931;52.098;21.006;2023-08-01T07:41:37;25.40;52.17
68128;SHT30;54931;52.098;21.006;2023-08-01T07:44:04;25.35;52.12
68128;SHT30;54931;52.098;21.006;2023-08-01T07:46:32;25.32;52.11
68128;SHT30;54931;52.098;21.006;2023-08-01T07:49:00;25.42;53.17
68128;SHT30;54931;52.098;21.006;2023-08-01T07:51:27;25.62;52.89
68128;SHT30;54931;52.098;21.006;2023-08-01T07:53:56;25.75;52.38
68128;SHT30;54931;52.098;21.006;2023-08-01T07:56:25;25.84;52.49
68128;SHT30;54931;52.098;21.006;2023-08-01T07:58:52;25.97;52.29
68128;SHT30;54931;52.098;21.006;2023-08-01T08:01:20;26.09;51.86
68128;SHT30;54931;52.098;21.006;2023-08-01T08:03:48;26.16;51.55
68128;SHT30;54931;52.098;21.006;2023-08-01T08:06:16;26.23;51.50
68128;SHT30;54931;52.098;21.006;2023-08-01T08:08:45;26.27;50.96
68128;SHT30;54931;52.098;21.006;2023-08-01T08:11:13;26.30;51.57
68128;SHT30;54931;52.098;21.006;2023-08-01T08:13:48;26.36;52.00
68128;SHT30;54931;52.098;21.006;2023-08-01T08:16:16;26.36;51.11
68128;SHT30;54931;52.098;21.006;2023-08-01T08:18:44;26.28;51.33
68128;SHT30;54931;52.098;21.006;2023-08-01T08:21:12;26.22;51.46
68128;SHT30;54931;52.098;21.006;2023-08-01T08:23:42;26.18;51.67
68128;SHT30;54931;52.098;21.006;2023-08-01T08:26:10;26.23;52.27
68128;SHT30;54931;52.098;21.006;2023-08-01T08:28:38;26.28;52.13
68128;SHT30;54931;52.098;21.006;2023-08-01T08:31:10;26.27;51.89
68128;SHT30;54931;52.098;21.006;2023-08-01T08:33:38;26.16;51.74
68128;SHT30;54931;52.098;21.006;2023-08-01T08:36:07;26.05;52.26
68128;SHT30;54931;52.098;21.006;2023-08-01T08:38:36;25.94;53.29
68128;SHT30;54931;52.098;21.006;2023-08-01T08:41:16;25.84;53.22
68128;SHT30;54931;52.098;21.006;2023-08-01T08:43:51;25.67;52.61
68128;SHT30;54931;52.098;21.006;2023-08-01T08:46:28;25.52;52.76
68128;SHT30;54931;52.098;21.006;2023-08-01T08:48:59;25.31;51.73
68128;SHT30;54931;52.098;21.006;2023-08-01T08:51:28;25.12;51.44
68128;SHT30;54931;52.098;21.006;2023-08-01T08:53:59;24.96;52.07
68128;SHT30;54931;52.098;21.006;2023-08-01T08:56:31;24.86;52.05
68128;SHT30;54931;52.098;21.006;2023-08-01T08:59:02;24.77;52.44
68128;SHT30;54931;52.098;21.006;2023-08-01T09:01:31;24.76;53.60
68128;SHT30;54931;52.098;21.006;2023-08-01T09:04:02;24.78;54.03
68128;SHT30;54931;52.098;21.006;2023-08-01T09:06:46;24.77;53.73
68128;SHT30;54931;52.098;21.006;2023-08-01T09:09:19;24.70;53.01
68128;SHT30;54931;52.098;21.006;2023-08-01T09:11:51;24.64;52.99
68128;SHT30;54931;52.098;21.006;2023-08-01T09:14:19;24.62;53.23
68128;SHT30;54931;52.098;21.006;2023-08-01T09:16:47;24.66;53.43
68128;SHT30;54931;52.098;21.006;2023-08-01T09:19:19;24.73;53.65
68128;SHT30;54931;52.098;21.006;2023-08-01T09:21:49;24.88;54.11
68128;SHT30;54931;52.098;21.006;2023-08-01T09:24:18;25.04;53.71
68128;SHT30;54931;52.098;21.006;2023-08-01T09:26:49;25.12;52.17
68128;SHT30;54931;52.098;21.006;2023-08-01T09:29:17;25.16;52.66
68128;SHT30;54931;52.098;21.006;2023-08-01T09:31:47;25.22;53.08
68128;SHT30;54931;52.098;21.006;2023-08-01T09:34:19;25.30;52.70
68128;SHT30;54931;52.098;21.006;2023-08-01T09:36:59;25.38;52.86
68128;SHT30;54931;52.098;21.006;2023-08-01T09:39:28;25.46;52.68
68128;SHT30;54931;52.098;21.006;2023-08-01T09:41:59;25.47;52.53
68128;SHT30;54931;52.098;21.006;2023-08-01T09:44:30;25.39;51.94
68128;SHT30;54931;52.098;21.006;2023-08-01T09:49:31;25.28;52.98
68128;SHT30;54931;52.098;21.006;2023-08-01T09:52:00;25.42;52.60
68128;SHT30;54931;52.098;21.006;2023-08-01T09:54:28;25.58;52.44
68128;SHT30;54931;52.098;21.006;2023-08-01T09:56:56;25.66;52.33
68128;SHT30;54931;52.098;21.006;2023-08-01T09:59:25;25.75;52.90
68128;SHT30;54931;52.098;21.006;2023-08-01T10:01:54;25.90;52.90
68128;SHT30;54931;52.098;21.006;2023-08-01T10:04:24;25.92;51.81
68128;SHT30;54931;52.098;21.006;2023-08-01T10:07:01;25.85;51.51
68128;SHT30;54931;52.098;21.006;2023-08-01T10:09:35;25.72;51.38
68128;SHT30;54931;52.098;21.006;2023-08-01T10:12:04;25.68;52.28
68128;SHT30;54931;52.098;21.006;2023-08-01T10:14:34;25.66;52.56
68128;SHT30;54931;52.098;21.006;2023-08-01T10:17:04;25.57;52.81
68128;SHT30;54931;52.098;21.006;2023-08-01T10:19:33;25.34;53.83
68128;SHT30;54931;52.098;21.006;2023-08-01T10:22:01;25.06;54.82
68128;SHT30;54931;52.098;21.006;2023-08-01T10:24:31;24.80;55.49
68128;SHT30;54931;52.098;21.006;2023-08-01T10:27:18;24.51;55.67
68128;SHT30;54931;52.098;21.006;2023-08-01T10:29:59;24.22;57.18
68128;SHT30;54931;52.098;21.006;2023-08-01T10:32:31;24.02;58.80
68128;SHT30;54931;52.098;21.006;2023-08-01T10:35:01;23.86;60.17
68128;SHT30;54931;52.098;21.006;2023-08-01T10:37:44;23.65;59.75
68128;SHT30;54931;52.098;21.006;2023-08-01T10:40:15;23.44;60.99
68128;SHT30;54931;52.098;21.006;2023-08-01T10:42:44;23.28;61.92
68128;SHT30;54931;52.098;21.006;2023-08-01T10:45:24;23.12;62.58
68128;SHT30;54931;52.098;21.006;2023-08-01T10:47:54;22.97;63.54
68128;SHT30;54931;52.098;21.006;2023-08-01T10:50:21;22.85;64.03
68128;SHT30;54931;52.098;21.006;2023-08-01T10:52:49;22.72;64.16
68128;SHT30;54931;52.098;21.006;2023-08-01T10:55:43;22.65;65.10
68128;SHT30;54931;52.098;21.006;2023-08-01T10:58:13;22.60;65.22
68128;SHT30;54931;52.098;21.006;2023-08-01T11:00:41;22.55;65.55
68128;SHT30;54931;52.098;21.006;2023-08-01T11:03:10;22.52;66.15
68128;SHT30;54931;52.098;21.006;2023-08-01T11:05:38;22.50;66.17
68128;SHT30;54931;52.098;21.006;2023-08-01T11:08:05;22.46;66.05
68128;SHT30;54931;52.098;21.006;2023-08-01T11:10:33;22.40;66.70
68128;SHT30;54931;52.098;21.006;2023-08-01T11:13:00;22.33;66.66
68128;SHT30;54931;52.098;21.006;2023-08-01T11:15:28;22.28;67.56
68128;SHT30;54931;52.098;21.006;2023-08-01T11:17:56;22.26;68.31
68128;SHT30;54931;52.098;21.006;2023-08-01T11:20:24;22.26;68.68
68128;SHT30;54931;52.098;21.006;2023-08-01T11:22:56;22.28;69.11
68128;SHT30;54931;52.098;21.006;2023-08-01T11:28:09;22.31;69.69
68128;SHT30;54931;52.098;21.006;2023-08-01T11:30:38;22.31;69.88
68128;SHT30;54931;52.098;21.006;2023-08-01T11:33:17;22.34;70.48
68128;SHT30;54931;52.098;21.006;2023-08-01T11:35:50;22.40;70.95
68128;SHT30;54931;52.098;21.006;2023-08-01T11:38:27;22.42;70.24
68128;SHT30;54931;52.098;21.006;2023-08-01T11:40:57;22.41;70.45
68128;SHT30;54931;52.098;21.006;2023-08-01T11:43:25;22.43;70.60
68128;SHT30;54931;52.098;21.006;2023-08-01T11:45:53;22.46;70.52
68128;SHT30;54931;52.098;21.006;2023-08-01T11:48:23;22.54;70.30
68128;SHT30;54931;52.098;21.006;2023-08-01T11:51:00;22.58;69.50
68128;SHT30;54931;52.098;21.006;2023-08-01T11:53:28;22.64;69.01
68128;SHT30;54931;52.098;21.006;2023-08-01T11:55:56;22.69;68.76
68128;SHT30;54931;52.098;21.006;2023-08-01T11:58:30;22.80;68.16
68128;SHT30;54931;52.098;21.006;2023-08-01T12:01:06;22.88;67.53
68128;SHT30;54931;52.098;21.006;2023-08-01T12:06:22;23.08;65.52
68128;SHT30;54931;52.098;21.006;2023-08-01T12:08:51;23.18;65.33
68128;SHT30;54931;52.098;21.006;2023-08-01T12:11:23;23.28;65.34
68128;SHT30;54931;52.098;21.006;2023-08-01T12:16:31;23.52;64.16
68128;SHT30;54931;52.098;21.006;2023-08-01T12:18:59;23.63;64.18
68128;SHT30;54931;52.098;21.006;2023-08-01T12:21:27;23.75;64.08
68128;SHT30;54931;52.098;21.006;2023-08-01T12:23:58;23.81;62.85
68128;SHT30;54931;52.098;21.006;2023-08-01T12:26:26;23.77;62.03
68128;SHT30;54931;52.098;21.006;2023-08-01T12:28:54;23.71;62.00
68128;SHT30;54931;52.098;21.006;2023-08-01T12:31:22;23.62;62.05
68128;SHT30;54931;52.098;21.006;2023-08-01T12:33:50;23.54;61.84
68128;SHT30;54931;52.098;21.006;2023-08-01T12:36:20;23.43;62.44
68128;SHT30;54931;52.098;21.006;2023-08-01T12:38:48;23.41;62.47
68128;SHT30;54931;52.098;21.006;2023-08-01T12:41:16;23.43;62.83
68128;SHT30;54931;52.098;21.006;2023-08-01T12:43:43;23.46;62.56
68128;SHT30;54931;52.098;21.006;2023-08-01T12:46:11;23.50;62.86
68128;SHT30;54931;52.098;21.006;2023-08-01T12:48:39;23.55;62.52
68128;SHT30;54931;52.098;21.006;2023-08-01T12:51:07;23.54;61.79
68128;SHT30;54931;52.098;21.006;2023-08-01T12:53:35;23.60;62.27
68128;SHT30;54931;52.098;21.006;2023-08-01T12:56:02;23.68;62.07
68128;SHT30;54931;52.098;21.006;2023-08-01T12:58:30;23.79;61.81
68128;SHT30;54931;52.098;21.006;2023-08-01T13:00:58;23.92;61.70
68128;SHT30;54931;52.098;21.006;2023-08-01T13:03:25;24.02;60.86
68128;SHT30;54931;52.098;21.006;2023-08-01T13:05:53;24.07;60.80
68128;SHT30;54931;52.098;21.006;2023-08-01T13:08:20;24.12;60.66
68128;SHT30;54931;52.098;21.006;2023-08-01T13:10:47;24.20;60.60
68128;SHT30;54931;52.098;21.006;2023-08-01T13:13:16;24.36;60.76
68128;SHT30;54931;52.098;21.006;2023-08-01T13:15:43;24.51;60.03
68128;SHT30;54931;52.098;21.006;2023-08-01T13:18:11;24.63;59.96
68128;SHT30;54931;52.098;21.006;2023-08-01T13:20:41;24.70;59.85
68128;SHT30;54931;52.098;21.006;2023-08-01T13:23:08;24.77;59.46
68128;SHT30;54931;52.098;21.006;2023-08-01T13:25:36;24.82;59.31
68128;SHT30;54931;52.098;21.006;2023-08-01T13:28:03;24.83;58.78
68128;SHT30;54931;52.098;21.006;2023-08-01T13:30:30;24.81;59.21
68128;SHT30;54931;52.098;21.006;2023-08-01T13:32:59;24.79;58.67
68128;SHT30;54931;52.098;21.006;2023-08-01T13:35:27;24.77;58.79
68128;SHT30;54931;52.098;21.006;2023-08-01T13:37:55;24.76;58.79
68128;SHT30;54931;52.098;21.006;2023-08-01T13:40:22;24.71;58.93
68128;SHT30;54931;52.098;21.006;2023-08-01T13:42:52;24.66;58.97
68128;SHT30;54931;52.098;21.006;2023-08-01T13:45:19;24.63;59.35
68128;SHT30;54931;52.098;21.006;2023-08-01T13:47:47;24.60;59.22
68128;SHT30;54931;52.098;21.006;2023-08-01T13:50:14;24.51;59.22
68128;SHT30;54931;52.098;21.006;2023-08-01T13:52:42;24.37;59.75
68128;SHT30;54931;52.098;21.006;2023-08-01T13:55:11;24.20;60.47
68128;SHT30;54931;52.098;21.006;2023-08-01T13:57:41;23.95;61.47
68128;SHT30;54931;52.098;21.006;2023-08-01T14:00:12;23.68;62.11
68128;SHT30;54931;52.098;21.006;2023-08-01T14:02:41;23.45;63.18
68128;SHT30;54931;52.098;21.006;2023-08-01T14:05:09;23.23;63.74
68128;SHT30;54931;52.098;21.006;2023-08-01T14:07:38;23.13;64.46
68128;SHT30;54931;52.098;21.006;2023-08-01T14:10:08;23.11;64.47
68128;SHT30;54931;52.098;21.006;2023-08-01T14:12:37;23.17;64.52
68128;SHT30;54931;52.098;21.006;2023-08-01T14:15:05;23.26;64.57
68128;SHT30;54931;52.098;21.006;2023-08-01T14:17:34;23.33;64.43
68128;SHT30;54931;52.098;21.006;2023-08-01T14:20:04;23.39;64.26
68128;SHT30;54931;52.098;21.006;2023-08-01T14:22:33;23.47;63.82
68128;SHT30;54931;52.098;21.006;2023-08-01T14:25:01;23.57;63.80
68128;SHT30;54931;52.098;21.006;2023-08-01T14:27:29;23.67;63.74
68128;SHT30;54931;52.098;21.006;2023-08-01T14:29:57;23.74;63.30
68128;SHT30;54931;52.098;21.006;2023-08-01T14:32:25;23.75;63.05
68128;SHT30;54931;52.098;21.006;2023-08-01T14:34:53;23.71;62.98
68128;SHT30;54931;52.098;21.006;2023-08-01T14:37:21;23.64;63.19
68128;SHT30;54931;52.098;21.006;2023-08-01T14:39:51;23.59;63.59
68128;SHT30;54931;52.098;21.006;2023-08-01T14:42:19;23.48;64.27
68128;SHT30;54931;52.098;21.006;2023-08-01T14:44:51;23.30;65.70
68128;SHT30;54931;52.098;21.006;2023-08-01T14:47:20;22.97;67.49
68128;SHT30;54931;52.098;21.006;2023-08-01T14:49:48;22.58;69.05
68128;SHT30;54931;52.098;21.006;2023-08-01T14:52:16;22.08;70.55
68128;SHT30;54931;52.098;21.006;2023-08-01T14:54:43;21.58;71.94
68128;SHT30;54931;52.098;21.006;2023-08-01T14:57:10;21.23;73.08
68128;SHT30;54931;52.098;21.006;2023-08-01T14:59:38;20.95;73.93
68128;SHT30;54931;52.098;21.006;2023-08-01T15:02:05;20.72;74.60
68128;SHT30;54931;52.098;21.006;2023-08-01T15:04:33;20.50;75.18
68128;SHT30;54931;52.098;21.006;2023-08-01T15:07:01;20.35;75.64
68128;SHT30;54931;52.098;21.006;2023-08-01T15:09:30;20.27;76.03
68128;SHT30;54931;52.098;21.006;2023-08-01T15:11:58;20.20;76.34
68128;SHT30;54931;52.098;21.006;2023-08-01T15:14:25;20.15;76.55
68128;SHT30;54931;52.098;21.006;2023-08-01T15:16:53;20.10;76.93
68128;SHT30;54931;52.098;21.006;2023-08-01T15:19:20;20.09;77.29
68128;SHT30;54931;52.098;21.006;2023-08-01T15:21:47;20.08;77.49
68128;SHT30;54931;52.098;21.006;2023-08-01T15:24:15;20.07;77.73
68128;SHT30;54931;52.098;21.006;2023-08-01T15:26:42;20.06;77.93
68128;SHT30;54931;52.098;21.006;2023-08-01T15:29:09;20.06;78.08
68128;SHT30;54931;52.098;21.006;2023-08-01T15:31:37;20.06;78.14
68128;SHT30;54931;52.098;21.006;2023-08-01T15:34:04;20.06;78.28